sensor_id;sensor_type;location;lat;lon;timestamp;pressure;altitude;pressure_sealevel;temperature;humidity
72359;BME280;60317;48.880;-0.862;2023-04-25T00:02:13;100045.09;;;19.30;41.48
72359;BME280;60317;48.880;-0.862;2023-04-25T00:04:40;100036.34;;;19.28;41.53
72359;BME280;60317;48.880;-0.862;2023-04-25T00:07:08;100060.22;;;19.31;41.54
72359;BME280;60317;48.880;-0.862;2023-04-25T00:09:35;100060.22;;;19.31;41.41
72359;BME280;60317;48.880;-0.862;2023-04-25T00:12:01;100058.50;;;19.30;41.40
72359;BME280;60317;48.880;-0.862;2023-04-25T00:14:28;100066.38;;;19.22;41.59
72359;BME280;60317;48.880;-0.862;2023-04-25T00:16:55;100070.88;;;19.21;41.58
72359;BME280;60317;48.880;-0.862;2023-04-25T00:19:21;100070.72;;;19.23;41.72
72359;BME280;60317;48.880;-0.862;2023-04-25T00:21:48;100079.50;;;19.25;41.65
72359;BME280;60317;48.880;-0.862;2023-04-25T00:24:15;100074.88;;;19.27;41.56
72359;BME280;60317;48.880;-0.862;2023-04-25T00:26:42;100073.03;;;19.27;41.47
72359;BME280;60317;48.880;-0.862;2023-04-25T00:29:08;100064.00;;;19.28;41.49
72359;BME280;60317;48.880;-0.862;2023-04-25T00:31:35;100071.19;;;19.28;41.62
72359;BME280;60317;48.880;-0.862;2023-04-25T00:34:01;100073.44;;;19.33;41.44
72359;BME280;60317;48.880;-0.862;2023-04-25T00:36:28;100073.44;;;19.33;41.39
72359;BME280;60317;48.880;-0.862;2023-04-25T00:38:55;100077.25;;;19.30;41.33
72359;BME280;60317;48.880;-0.862;2023-04-25T00:41:23;100080.50;;;19.34;41.40
72359;BME280;60317;48.880;-0.862;2023-04-25T00:43:51;100081.19;;;19.26;41.54
72359;BME280;60317;48.880;-0.862;2023-04-25T00:46:19;100079.19;;;19.18;41.72
72359;BME280;60317;48.880;-0.862;2023-04-25T00:48:46;100077.34;;;19.19;41.62
72359;BME280;60317;48.880;-0.862;2023-04-25T00:51:15;100081.44;;;19.23;41.42
72359;BME280;60317;48.880;-0.862;2023-04-25T00:53:44;100084.00;;;19.24;41.51
72359;BME280;60317;48.880;-0.862;2023-04-25T00:56:11;100074.97;;;19.25;41.52
72359;BME280;60317;48.880;-0.862;2023-04-25T00:58:40;100078.38;;;19.27;41.54
72359;BME280;60317;48.880;-0.862;2023-04-25T01:01:07;100079.22;;;19.28;41.54
72359;BME280;60317;48.880;-0.862;2023-04-25T01:03:34;100088.25;;;19.27;41.51
72359;BME280;60317;48.880;-0.862;2023-04-25T01:06:04;100089.09;;;19.27;41.30
72359;BME280;60317;48.880;-0.862;2023-04-25T01:08:31;100084.59;;;19.28;41.62
72359;BME280;60317;48.880;-0.862;2023-04-25T01:10:57;100089.09;;;19.27;41.56
72359;BME280;60317;48.880;-0.862;2023-04-25T01:13:24;100091.63;;;19.29;41.54
72359;BME280;60317;48.880;-0.862;2023-04-25T01:15:52;100094.84;;;19.23;41.65
72359;BME280;60317;48.880;-0.862;2023-04-25T01:18:18;100089.16;;;19.16;41.58
72359;BME280;60317;48.880;-0.862;2023-04-25T01:20:46;100089.06;;;19.18;41.79
72359;BME280;60317;48.880;-0.862;2023-04-25T01:23:14;100099.50;;;19.21;41.60
72359;BME280;60317;48.880;-0.862;2023-04-25T01:25:40;100099.34;;;19.22;41.68
72359;BME280;60317;48.880;-0.862;2023-04-25T01:28:07;100100.09;;;19.24;41.75
72359;BME280;60317;48.880;-0.862;2023-04-25T01:30:34;100103.72;;;19.23;41.62
72359;BME280;60317;48.880;-0.862;2023-04-25T01:33:03;100107.97;;;19.26;41.59
72359;BME280;60317;48.880;-0.862;2023-04-25T01:35:29;100106.28;;;19.25;41.60
72359;BME280;60317;48.880;-0.862;2023-04-25T01:37:56;100106.28;;;19.25;41.64
72359;BME280;60317;48.880;-0.862;2023-04-25T01:40:24;100111.38;;;19.28;41.63
72359;BME280;60317;48.880;-0.862;2023-04-25T01:42:51;100107.84;;;19.27;41.57
72359;BME280;60317;48.880;-0.862;2023-04-25T01:45:18;100104.44;;;19.25;41.69
72359;BME280;60317;48.880;-0.862;2023-04-25T01:47:45;100109.38;;;19.20;41.81
72359;BME280;60317;48.880;-0.862;2023-04-25T01:50:11;100106.22;;;19.15;41.83
72359;BME280;60317;48.880;-0.862;2023-04-25T01:52:38;100100.75;;;19.17;41.69
72359;BME280;60317;48.880;-0.862;2023-04-25T01:55:05;100100.63;;;19.18;41.61
72359;BME280;60317;48.880;-0.862;2023-04-25T01:57:33;100096.09;;;19.19;41.53
72359;BME280;60317;48.880;-0.862;2023-04-25T02:00:01;100103.72;;;19.23;41.73
72359;BME280;60317;48.880;-0.862;2023-04-25T02:02:28;100105.56;;;19.23;41.87
72359;BME280;60317;48.880;-0.862;2023-04-25T02:04:55;100098.50;;;19.22;41.77
72359;BME280;60317;48.880;-0.862;2023-04-25T02:07:21;100109.09;;;19.23;41.77
72359;BME280;60317;48.880;-0.862;2023-04-25T02:09:48;100108.97;;;19.25;41.75
72359;BME280;60317;48.880;-0.862;2023-04-25T02:12:15;100115.16;;;19.25;41.64
72359;BME280;60317;48.880;-0.862;2023-04-25T02:14:43;100110.66;;;19.26;41.61
72359;BME280;60317;48.880;-0.862;2023-04-25T02:17:09;100108.13;;;19.24;41.62
72359;BME280;60317;48.880;-0.862;2023-04-25T02:19:36;100109.75;;;19.16;41.84
72359;BME280;60317;48.880;-0.862;2023-04-25T02:22:02;100113.44;;;19.15;41.52
72359;BME280;60317;48.880;-0.862;2023-04-25T02:24:29;100107.81;;;19.18;42.10
72359;BME280;60317;48.880;-0.862;2023-04-25T02:26:55;100105.13;;;19.18;41.73
72359;BME280;60317;48.880;-0.862;2023-04-25T02:29:22;100104.88;;;19.21;41.78
72359;BME280;60317;48.880;-0.862;2023-04-25T02:31:50;100100.34;;;19.21;41.75
72359;BME280;60317;48.880;-0.862;2023-04-25T02:34:17;100100.09;;;19.24;41.90
72359;BME280;60317;48.880;-0.862;2023-04-25T02:36:43;100108.13;;;19.24;41.60
72359;BME280;60317;48.880;-0.862;2023-04-25T02:39:10;100108.97;;;19.25;41.63
72359;BME280;60317;48.880;-0.862;2023-04-25T02:41:36;100115.06;;;19.27;41.72
72359;BME280;60317;48.880;-0.862;2023-04-25T02:44:03;100113.34;;;19.26;41.75
72359;BME280;60317;48.880;-0.862;2023-04-25T02:46:29;100121.38;;;19.26;41.71
72359;BME280;60317;48.880;-0.862;2023-04-25T02:49:06;100132.19;;;19.15;41.85
72359;BME280;60317;48.880;-0.862;2023-04-25T02:51:33;100133.88;;;19.16;41.78
72359;BME280;60317;48.880;-0.862;2023-04-25T02:53:59;100133.59;;;19.19;41.88
72359;BME280;60317;48.880;-0.862;2023-04-25T02:56:26;100139.69;;;19.21;41.79
72359;BME280;60317;48.880;-0.862;2023-04-25T02:58:52;100140.53;;;19.21;41.63
72359;BME280;60317;48.880;-0.862;2023-04-25T03:01:19;100142.94;;;19.24;41.65
72359;BME280;60317;48.880;-0.862;2023-04-25T03:03:46;100148.31;;;19.24;41.75
72359;BME280;60317;48.880;-0.862;2023-04-25T03:06:14;100145.75;;;19.23;41.84
72359;BME280;60317;48.880;-0.862;2023-04-25T03:08:40;100141.13;;;19.25;41.75
72359;BME280;60317;48.880;-0.862;2023-04-25T03:11:07;100143.66;;;19.26;41.74
72359;BME280;60317;48.880;-0.862;2023-04-25T03:13:33;100142.69;;;19.27;41.76
72359;BME280;60317;48.880;-0.862;2023-04-25T03:16:00;100150.84;;;19.26;41.71
72359;BME280;60317;48.880;-0.862;2023-04-25T03:18:26;100151.94;;;19.23;41.81
72359;BME280;60317;48.880;-0.862;2023-04-25T03:20:53;100152.63;;;19.16;42.03
72359;BME280;60317;48.880;-0.862;2023-04-25T03:23:21;100154.47;;;19.15;41.77
72359;BME280;60317;48.880;-0.862;2023-04-25T03:25:47;100151.50;;;19.18;41.82
72359;BME280;60317;48.880;-0.862;2023-04-25T03:28:14;100170.13;;;19.20;41.82
72359;BME280;60317;48.880;-0.862;2023-04-25T03:30:40;100163.81;;;19.21;41.84
72359;BME280;60317;48.880;-0.862;2023-04-25T03:33:07;100170.59;;;19.25;41.77
72359;BME280;60317;48.880;-0.862;2023-04-25T03:35:33;100165.34;;;19.23;41.67
72359;BME280;60317;48.880;-0.862;2023-04-25T03:38:00;100165.22;;;19.25;41.64
72359;BME280;60317;48.880;-0.862;2023-04-25T03:40:28;100166.22;;;19.24;41.99
72359;BME280;60317;48.880;-0.862;2023-04-25T03:42:54;100165.22;;;19.25;41.64
72359;BME280;60317;48.880;-0.862;2023-04-25T03:45:20;100160.72;;;19.25;41.71
72359;BME280;60317;48.880;-0.862;2023-04-25T03:47:47;100166.06;;;19.25;41.70
72359;BME280;60317;48.880;-0.862;2023-04-25T03:50:13;100175.78;;;19.17;41.91
72359;BME280;60317;48.880;-0.862;2023-04-25T03:52:40;100173.34;;;19.14;41.96
72359;BME280;60317;48.880;-0.862;2023-04-25T03:55:07;100177.56;;;19.16;41.94
72359;BME280;60317;48.880;-0.862;2023-04-25T03:57:35;100180.72;;;19.21;41.71
72359;BME280;60317;48.880;-0.862;2023-04-25T04:00:02;100177.91;;;19.23;41.69
72359;BME280;60317;48.880;-0.862;2023-04-25T04:02:29;100169.88;;;19.23;41.66
72359;BME280;60317;48.880;-0.862;2023-04-25T04:04:56;100168.91;;;19.24;41.73
72359;BME280;60317;48.880;-0.862;2023-04-25T04:07:23;100172.53;;;19.23;41.70
72359;BME280;60317;48.880;-0.862;2023-04-25T04:09:49;100165.34;;;19.23;41.69
72359;BME280;60317;48.880;-0.862;2023-04-25T04:12:16;100176.94;;;19.24;41.65
72359;BME280;60317;48.880;-0.862;2023-04-25T04:14:43;100166.91;;;19.26;41.64
72359;BME280;60317;48.880;-0.862;2023-04-25T04:17:10;100175.09;;;19.24;41.60
72359;BME280;60317;48.880;-0.862;2023-04-25T04:19:36;100174.91;;;19.16;41.90
72359;BME280;60317;48.880;-0.862;2023-04-25T04:22:03;100182.25;;;19.14;41.95
72359;BME280;60317;48.880;-0.862;2023-04-25T04:24:30;100176.72;;;19.16;41.73
72359;BME280;60317;48.880;-0.862;2023-04-25T04:26:56;100180.13;;;19.18;41.89
72359;BME280;60317;48.880;-0.862;2023-04-25T04:29:22;100184.66;;;19.17;41.67
72359;BME280;60317;48.880;-0.862;2023-04-25T04:31:50;100187.06;;;19.20;41.71
72359;BME280;60317;48.880;-0.862;2023-04-25T04:34:18;100190.44;;;19.22;41.54
72359;BME280;60317;48.880;-0.862;2023-04-25T04:36:45;100196.66;;;19.23;41.79
72359;BME280;60317;48.880;-0.862;2023-04-25T04:39:11;100192.28;;;19.22;41.73
72359;BME280;60317;48.880;-0.862;2023-04-25T04:41:38;100187.91;;;19.21;41.70
72359;BME280;60317;48.880;-0.862;2023-04-25T04:44:05;100187.78;;;19.22;41.57
72359;BME280;60317;48.880;-0.862;2023-04-25T04:46:34;100190.44;;;19.22;41.71
72359;BME280;60317;48.880;-0.862;2023-04-25T04:49:02;100201.56;;;19.18;41.59
72359;BME280;60317;48.880;-0.862;2023-04-25T04:51:29;100204.06;;;19.10;41.61
72359;BME280;60317;48.880;-0.862;2023-04-25T04:53:55;100198.72;;;19.10;41.80
72359;BME280;60317;48.880;-0.862;2023-04-25T04:56:22;100209.13;;;19.13;41.57
72359;BME280;60317;48.880;-0.862;2023-04-25T04:58:48;100209.88;;;19.15;41.62
72359;BME280;60317;48.880;-0.862;2023-04-25T05:01:15;100213.41;;;19.15;41.54
72359;BME280;60317;48.880;-0.862;2023-04-25T05:03:41;100215.09;;;19.16;41.66
72359;BME280;60317;48.880;-0.862;2023-04-25T05:06:10;100223.00;;;19.18;41.55
72359;BME280;60317;48.880;-0.862;2023-04-25T05:08:36;100220.59;;;19.15;41.67
72359;BME280;60317;48.880;-0.862;2023-04-25T05:11:03;100227.53;;;19.17;41.51
72359;BME280;60317;48.880;-0.862;2023-04-25T05:13:29;100233.00;;;19.16;41.62
72359;BME280;60317;48.880;-0.862;2023-04-25T05:15:56;100238.22;;;19.17;41.70
72359;BME280;60317;48.880;-0.862;2023-04-25T05:18:22;100237.97;;;19.20;41.50
72359;BME280;60317;48.880;-0.862;2023-04-25T05:20:49;100234.56;;;19.18;41.55
72359;BME280;60317;48.880;-0.862;2023-04-25T05:23:17;100237.41;;;19.17;41.40
72359;BME280;60317;48.880;-0.862;2023-04-25T05:25:43;100239.84;;;19.08;41.66
72359;BME280;60317;48.880;-0.862;2023-04-25T05:28:11;100242.53;;;19.08;41.52
72359;BME280;60317;48.880;-0.862;2023-04-25T05:30:38;100251.28;;;19.11;41.74
72359;BME280;60317;48.880;-0.862;2023-04-25T05:33:05;100246.63;;;19.13;41.65
72359;BME280;60317;48.880;-0.862;2023-04-25T05:35:31;100252.00;;;19.13;41.63
72359;BME280;60317;48.880;-0.862;2023-04-25T05:37:58;100243.84;;;19.14;41.68
72359;BME280;60317;48.880;-0.862;2023-04-25T05:40:26;100255.41;;;19.15;41.56
72359;BME280;60317;48.880;-0.862;2023-04-25T05:42:52;100259.06;;;19.14;41.34
72359;BME280;60317;48.880;-0.862;2023-04-25T05:45:19;100266.97;;;19.15;41.42
72359;BME280;60317;48.880;-0.862;2023-04-25T05:47:45;100268.66;;;19.16;41.40
72359;BME280;60317;48.880;-0.862;2023-04-25T05:50:12;100268.28;;;19.21;41.16
72359;BME280;60317;48.880;-0.862;2023-04-25T05:52:38;100273.19;;;19.16;41.60
72359;BME280;60317;48.880;-0.862;2023-04-25T05:55:05;100273.13;;;19.06;41.48
72359;BME280;60317;48.880;-0.862;2023-04-25T05:57:33;100276.50;;;19.08;41.50
72359;BME280;60317;48.880;-0.862;2023-04-25T06:00:00;100269.31;;;19.08;41.59
72359;BME280;60317;48.880;-0.862;2023-04-25T06:02:27;100273.72;;;19.10;41.41
72359;BME280;60317;48.880;-0.862;2023-04-25T06:04:53;100279.66;;;19.13;41.70
72359;BME280;60317;48.880;-0.862;2023-04-25T06:07:20;100276.84;;;19.15;41.43
72359;BME280;60317;48.880;-0.862;2023-04-25T06:09:47;100283.19;;;19.14;41.45
72359;BME280;60317;48.880;-0.862;2023-04-25T06:12:13;100280.50;;;19.14;41.61
72359;BME280;60317;48.880;-0.862;2023-04-25T06:14:41;100278.69;;;19.14;41.48
72359;BME280;60317;48.880;-0.862;2023-04-25T06:17:07;100283.91;;;19.16;41.42
72359;BME280;60317;48.880;-0.862;2023-04-25T06:19:35;100281.94;;;19.18;41.33
72359;BME280;60317;48.880;-0.862;2023-04-25T06:22:02;100286.31;;;19.19;41.25
72359;BME280;60317;48.880;-0.862;2023-04-25T06:24:28;100291.81;;;19.17;41.40
72359;BME280;60317;48.880;-0.862;2023-04-25T06:26:55;100289.31;;;19.04;41.59
72359;BME280;60317;48.880;-0.862;2023-04-25T06:29:21;100288.22;;;19.07;41.47
72359;BME280;60317;48.880;-0.862;2023-04-25T06:31:49;100286.22;;;19.09;41.45
72359;BME280;60317;48.880;-0.862;2023-04-25T06:34:16;100293.16;;;19.12;41.52
72359;BME280;60317;48.880;-0.862;2023-04-25T06:36:43;100289.50;;;19.13;41.36
72359;BME280;60317;48.880;-0.862;2023-04-25T06:39:09;100304.47;;;19.15;41.30
72359;BME280;60317;48.880;-0.862;2023-04-25T06:41:36;100314.34;;;19.15;41.27
72359;BME280;60317;48.880;-0.862;2023-04-25T06:44:03;100321.41;;;19.16;41.37
72359;BME280;60317;48.880;-0.862;2023-04-25T06:46:29;100321.41;;;19.16;41.30
72359;BME280;60317;48.880;-0.862;2023-04-25T06:48:57;100320.31;;;19.18;41.28
72359;BME280;60317;48.880;-0.862;2023-04-25T06:51:24;100309.72;;;19.17;41.16
72359;BME280;60317;48.880;-0.862;2023-04-25T06:53:50;100315.94;;;19.17;41.29
72359;BME280;60317;48.880;-0.862;2023-04-25T06:56:17;100324.06;;;19.16;41.27
72359;BME280;60317;48.880;-0.862;2023-04-25T06:58:43;100323.13;;;19.17;41.27
72359;BME280;60317;48.880;-0.862;2023-04-25T07:01:10;100327.16;;;19.11;41.40
72359;BME280;60317;48.880;-0.862;2023-04-25T07:03:36;100322.44;;;19.03;41.40
72359;BME280;60317;48.880;-0.862;2023-04-25T07:06:05;100327.53;;;19.06;41.59
72359;BME280;60317;48.880;-0.862;2023-04-25T07:08:31;100326.41;;;19.09;41.38
72359;BME280;60317;48.880;-0.862;2023-04-25T07:10:58;100324.47;;;19.11;41.36
72359;BME280;60317;48.880;-0.862;2023-04-25T07:13:24;100328.97;;;19.11;41.36
72359;BME280;60317;48.880;-0.862;2023-04-25T07:15:51;100332.38;;;19.13;41.29
72359;BME280;60317;48.880;-0.862;2023-04-25T07:18:17;100338.47;;;19.15;41.24
72359;BME280;60317;48.880;-0.862;2023-04-25T07:20:44;100335.94;;;19.13;41.26
72359;BME280;60317;48.880;-0.862;2023-04-25T07:23:11;100342.84;;;19.16;41.04
72359;BME280;60317;48.880;-0.862;2023-04-25T07:25:38;100346.34;;;19.16;41.15
72359;BME280;60317;48.880;-0.862;2023-04-25T07:28:04;100347.25;;;19.17;41.10
72359;BME280;60317;48.880;-0.862;2023-04-25T07:30:31;100345.50;;;19.16;41.20
72359;BME280;60317;48.880;-0.862;2023-04-25T07:32:57;100360.88;;;19.14;41.00
72359;BME280;60317;48.880;-0.862;2023-04-25T07:35:24;100363.31;;;19.05;41.22
72359;BME280;60317;48.880;-0.862;2023-04-25T07:37:51;100365.16;;;19.05;41.29
72359;BME280;60317;48.880;-0.862;2023-04-25T07:40:19;100365.91;;;19.07;41.12
72359;BME280;60317;48.880;-0.862;2023-04-25T07:42:45;100370.16;;;19.10;41.10
72359;BME280;60317;48.880;-0.862;2023-04-25T07:45:12;100377.22;;;19.11;41.15
72359;BME280;60317;48.880;-0.862;2023-04-25T07:47:38;100377.91;;;19.13;41.26
72359;BME280;60317;48.880;-0.862;2023-04-25T07:50:06;100370.75;;;19.13;41.23
72359;BME280;60317;48.880;-0.862;2023-04-25T07:52:32;100378.66;;;19.15;41.21
72359;BME280;60317;48.880;-0.862;2023-04-25T07:54:59;100377.66;;;19.16;41.26
72359;BME280;60317;48.880;-0.862;2023-04-25T07:57:26;100384.84;;;19.15;41.08
72359;BME280;60317;48.880;-0.862;2023-04-25T07:59:53;100382.06;;;19.17;41.20
72359;BME280;60317;48.880;-0.862;2023-04-25T08:02:20;100383.63;;;19.19;41.09
72359;BME280;60317;48.880;-0.862;2023-04-25T08:04:46;100382.91;;;19.17;41.21
72359;BME280;60317;48.880;-0.862;2023-04-25T08:07:14;100382.06;;;19.17;41.04
72359;BME280;60317;48.880;-0.862;2023-04-25T08:09:41;100382.06;;;19.17;41.02
72359;BME280;60317;48.880;-0.862;2023-04-25T08:12:08;100387.06;;;19.10;41.06
72359;BME280;60317;48.880;-0.862;2023-04-25T08:14:35;100392.94;;;19.04;41.23
72359;BME280;60317;48.880;-0.862;2023-04-25T08:17:02;100390.09;;;19.05;41.30
72359;BME280;60317;48.880;-0.862;2023-04-25T08:19:29;100392.44;;;19.10;41.19
72359;BME280;60317;48.880;-0.862;2023-04-25T08:21:55;100385.09;;;19.12;41.13
72359;BME280;60317;48.880;-0.862;2023-04-25T08:24:22;100403.75;;;19.14;41.05
72359;BME280;60317;48.880;-0.862;2023-04-25T08:26:49;100392.28;;;19.12;41.19
72359;BME280;60317;48.880;-0.862;2023-04-25T08:29:15;100395.72;;;19.14;41.02
72359;BME280;60317;48.880;-0.862;2023-04-25T08:31:43;100409.81;;;19.16;41.02
72359;BME280;60317;48.880;-0.862;2023-04-25T08:34:10;100400.09;;;19.15;40.83
72359;BME280;60317;48.880;-0.862;2023-04-25T08:36:37;100406.19;;;19.17;41.02
72359;BME280;60317;48.880;-0.862;2023-04-25T08:39:05;100403.50;;;19.17;40.96
72359;BME280;60317;48.880;-0.862;2023-04-25T08:41:32;100416.75;;;19.18;40.82
72359;BME280;60317;48.880;-0.862;2023-04-25T08:43:59;100421.25;;;19.18;41.00
72359;BME280;60317;48.880;-0.862;2023-04-25T08:46:26;100418.69;;;19.16;40.95
72359;BME280;60317;48.880;-0.862;2023-04-25T08:48:56;100420.31;;;19.07;41.13
72359;BME280;60317;48.880;-0.862;2023-04-25T08:51:25;100415.81;;;19.08;40.98
72359;BME280;60317;48.880;-0.862;2023-04-25T08:53:53;100418.38;;;19.10;40.94
72359;BME280;60317;48.880;-0.862;2023-04-25T08:56:27;100421.75;;;19.12;40.88
72359;BME280;60317;48.880;-0.862;2023-04-25T08:58:56;100420.66;;;19.14;40.83
72359;BME280;60317;48.880;-0.862;2023-04-25T09:01:23;100434.78;;;19.16;40.71
72359;BME280;60317;48.880;-0.862;2023-04-25T09:03:50;100441.00;;;19.17;40.86
72359;BME280;60317;48.880;-0.862;2023-04-25T09:06:19;100437.34;;;19.18;40.69
72359;BME280;60317;48.880;-0.862;2023-04-25T09:08:45;100449.75;;;19.19;40.93
72359;BME280;60317;48.880;-0.862;2023-04-25T09:11:12;100446.09;;;19.20;40.52
72359;BME280;60317;48.880;-0.862;2023-04-25T09:13:39;100451.34;;;19.21;40.51
72359;BME280;60317;48.880;-0.862;2023-04-25T09:16:06;100442.69;;;19.18;40.55
72359;BME280;60317;48.880;-0.862;2023-04-25T09:18:33;100447.66;;;19.22;40.37
72359;BME280;60317;48.880;-0.862;2023-04-25T09:21:05;100444.88;;;19.24;40.30
72359;BME280;60317;48.880;-0.862;2023-04-25T09:23:41;100444.16;;;19.22;40.37
72359;BME280;60317;48.880;-0.862;2023-04-25T09:26:08;100446.84;;;19.11;40.57
72359;BME280;60317;48.880;-0.862;2023-04-25T09:28:35;100443.19;;;19.12;40.39
72359;BME280;60317;48.880;-0.862;2023-04-25T09:31:01;100450.00;;;19.16;40.46
72359;BME280;60317;48.880;-0.862;2023-04-25T09:33:29;100445.47;;;19.16;40.49
72359;BME280;60317;48.880;-0.862;2023-04-25T09:36:02;100450.75;;;19.18;40.40
72359;BME280;60317;48.880;-0.862;2023-04-25T09:38:30;100447.91;;;19.19;40.25
72359;BME280;60317;48.880;-0.862;2023-04-25T09:40:58;100449.50;;;19.22;40.36
72359;BME280;60317;48.880;-0.862;2023-04-25T09:43:25;100451.94;;;19.25;40.35
72359;BME280;60317;48.880;-0.862;2023-04-25T09:45:54;100453.78;;;19.24;40.17
72359;BME280;60317;48.880;-0.862;2023-04-25T09:48:25;100459.97;;;19.25;40.16
72359;BME280;60317;48.880;-0.862;2023-04-25T09:51:04;100462.66;;;19.25;40.06
72359;BME280;60317;48.880;-0.862;2023-04-25T09:53:31;100453.03;;;19.22;40.38
72359;BME280;60317;48.880;-0.862;2023-04-25T09:56:00;100454.47;;;19.26;40.09
72359;BME280;60317;48.880;-0.862;2023-04-25T09:58:29;100449.00;;;19.28;40.08
72359;BME280;60317;48.880;-0.862;2023-04-25T10:01:00;100449.25;;;19.25;40.18
72359;BME280;60317;48.880;-0.862;2023-04-25T10:03:29;100460.72;;;19.16;40.12
72359;BME280;60317;48.880;-0.862;2023-04-25T10:05:59;100455.59;;;19.13;40.36
72359;BME280;60317;48.880;-0.862;2023-04-25T10:08:31;100461.56;;;19.16;40.36
72359;BME280;60317;48.880;-0.862;2023-04-25T10:11:00;100451.44;;;19.20;40.02
72359;BME280;60317;48.880;-0.862;2023-04-25T10:13:27;100449.03;;;19.17;40.01
72359;BME280;60317;48.880;-0.862;2023-04-25T10:15:55;100454.00;;;19.21;40.03
72359;BME280;60317;48.880;-0.862;2023-04-25T10:18:22;100450.34;;;19.22;39.97
72359;BME280;60317;48.880;-0.862;2023-04-25T10:20:48;100439.63;;;19.22;39.96
72359;BME280;60317;48.880;-0.862;2023-04-25T10:23:16;100441.47;;;19.22;39.85
72359;BME280;60317;48.880;-0.862;2023-04-25T10:25:43;100437.69;;;19.24;40.06
72359;BME280;60317;48.880;-0.862;2023-04-25T10:28:11;100450.25;;;19.24;39.85
72359;BME280;60317;48.880;-0.862;2023-04-25T10:30:56;100449.25;;;19.25;39.79
72359;BME280;60317;48.880;-0.862;2023-04-25T10:33:32;100443.91;;;19.25;39.91
72359;BME280;60317;48.880;-0.862;2023-04-25T10:35:58;100439.28;;;19.27;39.75
72359;BME280;60317;48.880;-0.862;2023-04-25T10:38:34;100443.41;;;19.20;39.95
72359;BME280;60317;48.880;-0.862;2023-04-25T10:41:03;100456.59;;;19.12;40.13
72359;BME280;60317;48.880;-0.862;2023-04-25T10:43:36;100448.16;;;19.16;39.86
72359;BME280;60317;48.880;-0.862;2023-04-25T10:46:12;100450.59;;;19.19;40.05
72359;BME280;60317;48.880;-0.862;2023-04-25T10:48:45;100450.34;;;19.22;39.89
72359;BME280;60317;48.880;-0.862;2023-04-25T10:51:16;100447.56;;;19.24;39.78
72359;BME280;60317;48.880;-0.862;2023-04-25T10:53:43;100445.84;;;19.23;39.60
72359;BME280;60317;48.880;-0.862;2023-04-25T10:56:11;100452.91;;;19.24;39.52
72359;BME280;60317;48.880;-0.862;2023-04-25T10:58:44;100441.97;;;19.27;39.66
72359;BME280;60317;48.880;-0.862;2023-04-25T11:01:12;100439.28;;;19.27;39.29
72359;BME280;60317;48.880;-0.862;2023-04-25T11:03:41;100439.00;;;19.30;39.72
72359;BME280;60317;48.880;-0.862;2023-04-25T11:06:19;100439.97;;;19.29;39.43
72359;BME280;60317;48.880;-0.862;2023-04-25T11:08:48;100443.66;;;19.28;39.83
72359;BME280;60317;48.880;-0.862;2023-04-25T11:11:15;100436.44;;;19.28;39.40
72359;BME280;60317;48.880;-0.862;2023-04-25T11:13:43;100446.09;;;19.31;39.52
72359;BME280;60317;48.880;-0.862;2023-04-25T11:16:10;100452.19;;;19.22;39.86
72359;BME280;60317;48.880;-0.862;2023-04-25T11:18:41;100451.59;;;19.18;39.89
72359;BME280;60317;48.880;-0.862;2023-04-25T11:21:07;100444.41;;;19.19;39.66
72359;BME280;60317;48.880;-0.862;2023-04-25T11:23:34;100443.16;;;19.23;39.48
72359;BME280;60317;48.880;-0.862;2023-04-25T11:26:00;100440.38;;;19.24;39.43
72359;BME280;60317;48.880;-0.862;2023-04-25T11:28:27;100445.59;;;19.26;39.48
72359;BME280;60317;48.880;-0.862;2023-04-25T11:30:55;100447.31;;;19.27;39.46
72359;BME280;60317;48.880;-0.862;2023-04-25T11:33:23;100438.28;;;19.28;39.42
72359;BME280;60317;48.880;-0.862;2023-04-25T11:35:53;100447.19;;;19.28;39.29
72359;BME280;60317;48.880;-0.862;2023-04-25T11:38:20;100456.06;;;19.29;39.25
72359;BME280;60317;48.880;-0.862;2023-04-25T11:40:50;100453.13;;;19.32;39.31
72359;BME280;60317;48.880;-0.862;2023-04-25T11:43:18;100448.75;;;19.31;39.31
72359;BME280;60317;48.880;-0.862;2023-04-25T11:45:47;100445.09;;;19.32;39.35
72359;BME280;60317;48.880;-0.862;2023-04-25T11:48:16;100442.28;;;19.34;39.29
72359;BME280;60317;48.880;-0.862;2023-04-25T11:50:43;100443.16;;;19.34;39.31
72359;BME280;60317;48.880;-0.862;2023-04-25T11:53:09;100445.09;;;19.32;39.21
72359;BME280;60317;48.880;-0.862;2023-04-25T11:55:36;100444.16;;;19.22;39.43
72359;BME280;60317;48.880;-0.862;2023-04-25T11:58:04;100444.00;;;19.23;39.32
72359;BME280;60317;48.880;-0.862;2023-04-25T12:00:31;100444.50;;;19.28;39.42
72359;BME280;60317;48.880;-0.862;2023-04-25T12:02:58;100457.66;;;19.31;39.12
72359;BME280;60317;48.880;-0.862;2023-04-25T12:05:30;100461.16;;;19.32;39.37
72359;BME280;60317;48.880;-0.862;2023-04-25T12:08:10;100457.41;;;19.35;39.11
72359;BME280;60317;48.880;-0.862;2023-04-25T12:10:38;100456.56;;;19.34;39.20
72359;BME280;60317;48.880;-0.862;2023-04-25T12:13:18;100446.69;;;19.35;39.30
72359;BME280;60317;48.880;-0.862;2023-04-25T12:15:45;100446.44;;;19.38;38.95
72359;BME280;60317;48.880;-0.862;2023-04-25T12:18:12;100454.56;;;19.36;39.13
72359;BME280;60317;48.880;-0.862;2023-04-25T12:20:41;100452.63;;;19.38;39.07
72359;BME280;60317;48.880;-0.862;2023-04-25T12:23:08;100449.97;;;19.38;38.84
72359;BME280;60317;48.880;-0.862;2023-04-25T12:25:35;100451.66;;;19.39;38.96
72359;BME280;60317;48.880;-0.862;2023-04-25T12:28:11;100454.19;;;19.41;39.10
72359;BME280;60317;48.880;-0.862;2023-04-25T12:30:52;100447.91;;;19.30;39.14
72359;BME280;60317;48.880;-0.862;2023-04-25T12:33:19;100451.44;;;19.31;39.25
72359;BME280;60317;48.880;-0.862;2023-04-25T12:35:47;100454.13;;;19.31;39.08
72359;BME280;60317;48.880;-0.862;2023-04-25T12:38:21;100453.00;;;19.34;39.08
72359;BME280;60317;48.880;-0.862;2023-04-25T12:40:48;100449.22;;;19.36;38.96
72359;BME280;60317;48.880;-0.862;2023-04-25T12:43:14;100448.22;;;19.37;38.84